Adel, Georgia
Current Conditions -  °F | °C
As of 11:58 AM on Friday 31 Oct 2014 (Local Time) from KVAD Reporting Station
Clear Clear  
Wind Chill: 20°   Ceiling: Unl
Heat Index: 20°   Visibility: 10mi
Dew Point:   Wind: 10mph
Humidity: 40%   Direction: 330°NNW
Pressure: 29.92"   Gusts: NA
Location:  31.14°N, 83.42°W
Report Text: KVAD 311558Z AUTO 33009KT 10SM CLR 20/06 A2992 RMK AO2 SLP134 T01980057 $
Loading
Personal Weather Stations






























Interactive Weather Map
Tropical Storm Tracking
New forecast layout! Learn more

10-Day Weather Forecast

Advertisements
Track Severe Weather on mobile